METAR (acronimo di METeorological Air Report) è un messaggio meteo emesso nella maggior parte dei casi in ambito aeroportuale

UEEE - Yakutsk, Russia
Ultimo Aggiornamento: Mercoledì 25 Novembre 2020 19:30 CET
Parzialmente Nuvoloso
Parzialmente Nuvoloso
 Wind from Ovest
Vento: Ovest 7 km/h
Temperatura: -21°C
Wind Chill: -27°C
Punto di Rugiada: -23°C
Umidità: 84%
Barometro: 1019 hPa
Nuvole: Parzialmente Nuvoloso
Visibilità: 10 km
Nuvole nel Dettaglio: Parzialmente Nuvoloso 640 m
2020/11/25 18:30 UEEE 251830Z 26002MPS 9999 SCT021 M21/M23 Q1019 R23L/450147 NOSIG RMK QFE755
UHWW - Vladivostok, Russia
Ultimo Aggiornamento: Mercoledì 25 Novembre 2020 19:30 CET
Parzialmente Nuvoloso
Parzialmente Nuvoloso
 Wind from Nord-Nord-Ovest
Vento: Nord-Nord-Ovest 14 km/h
Temperatura: -1°C
Wind Chill: -6°C
Punto di Rugiada: -6°C
Umidità: 69%
Barometro: 1026 hPa
Nuvole: Parzialmente Nuvoloso
Visibilità: 10 km
2020/11/25 18:30 UHWW 251830Z 34004MPS 9999 NSC M01/M06 Q1026 R25L/810160 NOSIG RMK QFE768
ZMUB - Ulan Bator, Mongolia
Ultimo Aggiornamento: Mercoledì 25 Novembre 2020 19:00 CET
Neve Leggera, Nuvoloso
Neve Leggera, Nuvoloso
 Wind from varies
Vento: variabile 4 km/h
Temperatura: -12°C
Punto di Rugiada: -14°C
Umidità: 85%
Barometro: 1028 hPa
Condizioni: Neve Leggera
Nuvole: Nuvoloso
Visibilità: 6 km
Nuvole nel Dettaglio: Nuvoloso 914 m
2020/11/25 18:00 ZMUB 251800Z VRB01MPS 6000NW -SN OVC030 M12/M14 Q1028 R14440095 NOSIG RMK QFE662.5 85 NT
 
UTTT - Tashkent, Uzbekistan
Ultimo Aggiornamento: Mercoledì 25 Novembre 2020 19:30 CET
Bruma, Parzialmente Nuvoloso
Bruma, Parzialmente Nuvoloso
 Wind from varies
Vento: variabile 4 km/h
Temperatura: 0°C
Punto di Rugiada: -3°C
Umidità: 80%
Barometro: 1027 hPa
Condizioni: Bruma
Nuvole: Parzialmente Nuvoloso
Visibilità: 3 km
2020/11/25 18:30 UTTT 251830Z VRB02KT 2600 BR NSC M00/M03 Q1027 R08R/CLRD70 NOSIG
OAKB - Kabul, Afghanistan
Ultimo Aggiornamento: Mercoledì 25 Novembre 2020 19:50 CET
Bruma, Parzialmente Nuvoloso
Bruma, Parzialmente Nuvoloso
 Wind from Nord-Ovest
Vento: Nord-Ovest 9 km/h
Temperatura: 0°C
Wind Chill: -3°C
Punto di Rugiada: 0°C
Umidità: 100%
Barometro: 1024 hPa
Condizioni: Bruma
Nuvole: Parzialmente Nuvoloso
Visibilità: 1 km
2020/11/25 18:50 OAKB 251850Z 31005KT 1000 BR NSC M00/M00 Q1024 RMK A3026 AMB AMB
OPIS - Islamabad, Pakistan
Ultimo Aggiornamento: Mercoledì 25 Novembre 2020 19:25 CET

 Wind from Ovest
Vento: Ovest 7 km/h
Visibilità: 1 km
2020/11/25 18:25 OPIS 251825Z 27004KT 1200 R28L/P2000 RMID/P2000 R10R/P2000 -RA SCT040 OVC100 10/10 Q1022 TEMPO 1000
 
ZBAA - Pechino, Cina
Ultimo Aggiornamento: Mercoledì 25 Novembre 2020 19:30 CET
Sereno
Sereno
 Wind from Nord
Vento: Nord 7 km/h
Temperatura: -2°C
Wind Chill: -5°C
Punto di Rugiada: -8°C
Umidità: 64%
Barometro: 1034 hPa
Condizioni: Sereno
Visibilità: superiore a 10 km
2020/11/25 18:30 ZBAA 251830Z 35002MPS CAVOK M02/M08 Q1034 NOSIG
VHHH - Pechino, Cina
Ultimo Aggiornamento: Mercoledì 25 Novembre 2020 19:30 CET
Qualche Nuvola
Qualche Nuvola
 Wind from Est
Vento: Est 19 km/h
Temperatura: 23°C
Punto di Rugiada: 19°C
Umidità: 78%
Barometro: 1019 hPa
Nuvole: Qualche Nuvola
Visibilità: 10 km
Nuvole nel Dettaglio: Qualche Nuvola 762 m
2020/11/25 18:30 VHHH 251830Z 08010KT 9999 FEW025 23/19 Q1019 NOSIG
RKSI - Seul-Incheon, Corea del Sud
Ultimo Aggiornamento: Mercoledì 25 Novembre 2020 19:30 CET
Parzialmente Nuvoloso
Parzialmente Nuvoloso
 Wind from Nord-Nord-Est
Vento: Nord-Nord-Est 7 km/h
Temperatura: 3°C
Wind Chill: 1°C
Punto di Rugiada: 1°C
Umidità: 87%
Barometro: 1027 hPa
Nuvole: Parzialmente Nuvoloso
Visibilità: 7 km
2020/11/25 18:30 RKSI 251830Z 03004KT 7000 NSC 03/01 Q1027 NOSIG
 
RJTT - Tokyo-Haneda, Japan
Ultimo Aggiornamento: Mercoledì 25 Novembre 2020 19:30 CET
Prevalentemente Nuvoloso
Prevalentemente Nuvoloso
 Wind from Nord-Nord-Ovest
Vento: Nord-Nord-Ovest 9 km/h
Temperatura: 12°C
Punto di Rugiada: 11°C
Umidità: 94%
Barometro: 1019 hPa
Nuvole: Prevalentemente Nuvoloso
Visibilità: 10 km
Nuvole nel Dettaglio: Prevalentemente Nuvoloso 305 m
2020/11/25 18:30 RJTT 251830Z 33005KT 9999 BKN010 12/11 Q1019 NOSIG
OIII - Tehran, Iran
Ultimo Aggiornamento: Mercoledì 25 Novembre 2020 19:30 CET
Foschia, Parzialmente Nuvoloso
Foschia, Parzialmente Nuvoloso
 Wind from calm
Vento: Calma
Temperatura: 7°C
Punto di Rugiada: 2°C
Umidità: 71%
Barometro: 1020 hPa
Condizioni: Foschia
Nuvole: Parzialmente Nuvoloso
Visibilità: 4 km
2020/11/25 18:30 OIII 251830Z 00000KT 4000 HZ NSC 07/02 Q1020 A3014
ORBI - Baghdad, Iraq
Ultimo Aggiornamento: Mercoledì 25 Novembre 2020 18:00 CET
Dati non Recenti
Sereno
Sereno
 Wind from Est-Sud-Est
Vento: Est-Sud-Est 13 km/h
Temperatura: 17°C
Punto di Rugiada: 7°C
Umidità: 52%
Barometro: 1014 hPa
Condizioni: Sereno
Visibilità: superiore a 10 km
2020/11/25 17:00 ORBI 251700Z 11007KT CAVOK 17/07 Q1014 NOSIG
 
OKBK - Kuwait City, Kuwait
Ultimo Aggiornamento: Mercoledì 25 Novembre 2020 19:00 CET
Sereno
Sereno
 Wind from Sud-Sud-Est
Vento: Sud-Sud-Est 11 km/h
Temperatura: 17°C
Punto di Rugiada: 12°C
Umidità: 73%
Barometro: 1016 hPa
Condizioni: Sereno
Visibilità: superiore a 10 km
2020/11/25 18:00 OKBK 251800Z 16006KT CAVOK 17/12 Q1016 NOSIG
OMDB - Dubai, United Arab Emirates
Ultimo Aggiornamento: Mercoledì 25 Novembre 2020 19:00 CET
Sereno
Sereno
 Wind from Est
Vento: Est 17 km/h
Temperatura: 24°C
Punto di Rugiada: 14°C
Umidità: 54%
Barometro: 1017 hPa
Condizioni: Sereno
Visibilità: superiore a 10 km
2020/11/25 18:00 OMDB 251800Z 08009KT CAVOK 24/14 Q1017 NOSIG
VIDP - New Delhi, India
Ultimo Aggiornamento: Mercoledì 25 Novembre 2020 19:30 CET
Bruma, Prevalentemente Nuvoloso
Bruma, Prevalentemente Nuvoloso
 Wind from calm
Vento: Calma
Temperatura: 17°C
Punto di Rugiada: 13°C
Umidità: 77%
Barometro: 1017 hPa
Condizioni: Bruma
Nuvole: Prevalentemente Nuvoloso
Visibilità: 1 km
Nuvole nel Dettaglio: Parzialmente Nuvoloso 1067 m
Qualche Nuvola 1219 m
Prevalentemente Nuvoloso 3048 m
2020/11/25 18:30 VIDP 251830Z 00000KT 1200 R28/P2000 R29/P2000 BR SCT035 FEW040CB BKN100 17/13 Q1017 NOSIG
 
VVNB - Hanoi, Vietnam
Ultimo Aggiornamento: Mercoledì 25 Novembre 2020 19:30 CET
Prevalentemente Nuvoloso
Prevalentemente Nuvoloso
 Wind from Sud-Sud-Est
Vento: Sud-Sud-Est 6 km/h
Temperatura: 23°C
Punto di Rugiada: 20°C
Umidità: 83%
Barometro: 1017 hPa
Nuvole: Prevalentemente Nuvoloso
Visibilità: 6 km
Nuvole nel Dettaglio: Prevalentemente Nuvoloso 1036 m
2020/11/25 18:30 VVNB 251830Z 16003KT 6000 BKN034 23/20 Q1017 NOSIG
VVTS - Ho Chi Minh City, Vietnam
Ultimo Aggiornamento: Mercoledì 25 Novembre 2020 19:30 CET
Parzialmente Nuvoloso
Parzialmente Nuvoloso
 Wind from calm
Vento: Calma
Temperatura: 27°C
Heat Index: 31°C
Punto di Rugiada: 25°C
Umidità: 89%
Barometro: 1010 hPa
Nuvole: Parzialmente Nuvoloso
Visibilità: 7 km
Nuvole nel Dettaglio: Qualche Nuvola 518 m
Parzialmente Nuvoloso 1524 m
2020/11/25 18:30 VVTS 251830Z 00000KT 7000 FEW017 SCT050 27/25 Q1010 NOSIG
RPLL - Manila, Philippines
Ultimo Aggiornamento: Mercoledì 25 Novembre 2020 19:00 CET
Parzialmente Nuvoloso
Parzialmente Nuvoloso
 Wind from Est-Sud-Est
Vento: Est-Sud-Est 6 km/h
Temperatura: 26°C
Punto di Rugiada: 21°C
Umidità: 74%
Barometro: 1011 hPa
Nuvole: Parzialmente Nuvoloso
Visibilità: 10 km
Nuvole nel Dettaglio: Qualche Nuvola 701 m
Parzialmente Nuvoloso 3048 m
2020/11/25 18:00 RPLL 251800Z 12003KT 090V150 9999 FEW023 SCT100 26/21 Q1011 NOSIG RMK A2985
 
WMKK - Kuala Lumpur, Malaysia
Ultimo Aggiornamento: Mercoledì 25 Novembre 2020 19:30 CET
Qualche Nuvola
Qualche Nuvola
 Wind from Nord-Est
Vento: Nord-Est 7 km/h
Temperatura: 25°C
Punto di Rugiada: 24°C
Umidità: 94%
Barometro: 1009 hPa
Nuvole: Qualche Nuvola
Visibilità: 9 km
Nuvole nel Dettaglio: Qualche Nuvola 305 m
Qualche Nuvola 518 m
2020/11/25 18:30 WMKK 251830Z 04004KT 340V090 9000 FEW010 FEW017CB 25/24 Q1009 NOSIG
WSSS - Singapore, Singapore
Ultimo Aggiornamento: Mercoledì 25 Novembre 2020 19:30 CET
Prevalentemente Nuvoloso
Prevalentemente Nuvoloso
 Wind from varies
Vento: variabile 4 km/h
Temperatura: 26°C
Punto di Rugiada: 23°C
Umidità: 84%
Barometro: 1008 hPa
Nuvole: Prevalentemente Nuvoloso
Visibilità: 10 km
Nuvole nel Dettaglio: Qualche Nuvola 488 m
Prevalentemente Nuvoloso 5182 m
2020/11/25 18:30 WSSS 251830Z VRB02KT 9999 FEW016 BKN170 26/23 Q1008 NOSIG
WBSB - Brunei, Brunei
Ultimo Aggiornamento: Mercoledì 25 Novembre 2020 19:30 CET
Prevalentemente Nuvoloso
Prevalentemente Nuvoloso
 Wind from Sud-Sud-Est
Vento: Sud-Sud-Est 4 km/h
Temperatura: 24°C
Punto di Rugiada: 24°C
Umidità: 100%
Barometro: 1008 hPa
Nuvole: Prevalentemente Nuvoloso
Visibilità: 10 km
Nuvole nel Dettaglio: Qualche Nuvola 91 m
Prevalentemente Nuvoloso 4267 m
2020/11/25 18:30 WBSB 251830Z 16002KT 9999 FEW003 BKN140 24/24 Q1008 RERA NOSIG